• Join FlightAware (Why Join?)
  • Login
  • US Flag 
04:54PM EDT


 

Airport Tracker/Info


-or-


 

Live Flight TrackerFlight Track Log ✈ DAL6067 ✈ 19-May-2013 ✈ KRIC - KCVG

Flight Track Log - Related Links

Times and Time Zones

All times are in EDT time to prevent confusion due to time zone crossing. See the DAL6067 flight status page for this flight to view local times or setup timezone preferences in your user account.

Time Position Orientation Groundspeed Altitude Reporting Facility
EDT Latitude Longitude Course Direction KTS MPH feet Rate Location/Type
07:31AM 37.4833 -77.3000 224° Southwest 169 194 1,600  Level Potomac TRACON
07:32AM 37.4492 -77.3419 224° Southwest 149 171 3,400 1,740 Climbing Washington Center
07:33AM 37.4378 -77.4175 259° West 156 180 5,400 1,860 Climbing Washington Center
07:34AM 37.4261 -77.5008 260° West 207 238 7,300 2,040 Climbing Washington Center
07:35AM 37.4142 -77.5922 261° West 245 282 9,600 1,740 Climbing Washington Center
07:36AM 37.4019 -77.6911 261° West 273 314 10,900 1,320 Climbing Washington Center
07:37AM 37.3853 -77.8031 259° West 304 350 12,200 1,260 Climbing Washington Center
07:38AM 37.3686 -77.9175 260° West 326 375 13,400 960 Climbing Washington Center
07:39AM 37.3494 -78.0397 259° West 351 404 14,200 900 Climbing Washington Center
07:40AM 37.3172 -78.1797 254° West 366 421 15,200 1,200 Climbing Washington Center
07:41AM 37.2936 -78.3094 257° West 377 434 16,600 1,260 Climbing Washington Center
07:42AM 37.3261 -78.4333 288° West 366 421 17,800 1,320 Climbing Washington Center
07:43AM 37.3756 -78.5503 298° West 358 412 19,300 1,440 Climbing Washington Center
07:44AM 37.4189 -78.6539 298° West 369 425 20,700 1,320 Climbing Washington Center
07:45AM 37.4681 -78.7683 298° West 374 430 22,000 600 Climbing Washington Center
07:46AM 37.5189 -78.8911 298° West 379 436 22,000  Level Washington Center
07:47AM 37.5756 -79.0272 298° West 391 450 22,000  Level Washington Center
07:48AM 37.6281 -79.1553 297° West 404 465 22,000  Level Washington Center
07:49AM 37.6767 -79.2783 297° West 404 465 22,000  Level Washington Center
07:50AM 37.7272 -79.3936 299° West 404 465 22,000  Level Washington Center
07:51AM 37.7792 -79.5250 297° West 414 476 22,000  Level Washington Center
07:52AM 37.8292 -79.6539 296° West 414 476 22,000  Level Washington Center
07:53AM 37.8869 -79.7939 298° West 414 476 22,000  Level Washington Center
07:54AM 37.9258 -79.9331 290° West 408 470 22,000  Level Washington Center
07:55AM 37.9606 -80.0667 288° West 408 470 22,000  Level Washington Center
07:56AM 37.9808 -80.1917 282° West 408 470 22,000  Level Washington Center
07:57AM 37.9983 -80.3272 279° West 395 455 22,000  Level Washington Center
08:00AM 38.0442 -80.6603 280° West 391 450 22,000  Level Indianapolis Center
08:01AM 38.0617 -80.7983 279° West 393 452 22,000  Level Indianapolis Center
08:02AM 38.0789 -80.9369 279° West 396 456 22,000  Level Indianapolis Center
08:03AM 38.0961 -81.0767 279° West 399 459 22,000  Level Indianapolis Center
08:04AM 38.1139 -81.2167 279° West 401 461 22,000  Level Indianapolis Center
08:05AM 38.1403 -81.3536 284° West 399 459 22,000  Level Indianapolis Center
08:06AM 38.1681 -81.4922 284° West 402 463 22,000  Level Indianapolis Center
08:07AM 38.1956 -81.6289 284° West 397 457 22,000  Level Indianapolis Center
08:08AM 38.2225 -81.7672 284° West 399 459 22,000  Level Indianapolis Center
08:09AM 38.2497 -81.9061 284° West 402 463 22,000  Level Indianapolis Center
08:10AM 38.2781 -82.0447 285° West 402 463 22,000  Level Indianapolis Center
08:11AM 38.3067 -82.1839 285° West 403 464 22,000  Level Indianapolis Center
08:12AM 38.3361 -82.3219 285° West 403 464 22,000  Level Indianapolis Center
08:13AM 38.3594 -82.4606 282° West 400 460 22,000  Level Indianapolis Center
08:14AM 38.3869 -82.6117 283° West 399 459 22,000  Level Indianapolis Center
08:15AM 38.4117 -82.7492 283° West 399 459 22,000  Level Indianapolis Center
08:16AM 38.4361 -82.8872 283° West 399 459 22,000 -600 Level Indianapolis Center
08:17AM 38.4603 -83.0261 283° West 401 461 20,800 -1,740 Descending Indianapolis Center
08:18AM 38.4883 -83.1869 283° West 398 458 18,500 -2,100 Descending Indianapolis Center
08:19AM 38.5114 -83.3233 282° West 395 455 16,600 -2,040 Descending Indianapolis Center
08:20AM 38.5344 -83.4569 282° West 389 448 14,400 -2,220 Descending Indianapolis Center
08:21AM 38.5567 -83.5828 283° West 368 423 12,200 -2,160 Descending Indianapolis Center
08:22AM 38.5767 -83.7042 282° West 352 405 10,100 -1,140 Descending Indianapolis Center
08:23AM 38.5975 -83.8261 282° West 352 405 10,000  Descending Indianapolis Center
08:24AM 38.6258 -83.9444 287° West 358 412 10,100  Climbing Indianapolis Center
08:25AM 38.6856 -84.0583 304° West 354 407 10,000 -60 Descending Indianapolis Center
08:26AM 38.7392 -84.1636 303° West 351 404 10,000  Level Indianapolis Center
08:27AM 38.7939 -84.2697 304° West 353 406 10,000  Level Indianapolis Center
08:28AM 38.8475 -84.3733 304° West 348 400 10,000  Level Indianapolis Center
08:29AM 38.8981 -84.4731 303° West 333 383 10,000  Level Indianapolis Center
08:29AM 38.9167 -84.5000 312° West 299 344 10,000 -1,140 Level Cincinnati TRACON
08:30AM 38.9833 -84.5333 339° North 264 304 8,600 -1,440 Descending Cincinnati TRACON
08:31AM 39.0167 -84.5333 360° North 264 304 7,700 -960 Descending Cincinnati TRACON
08:32AM 39.1000 -84.5333 360° North 247 284 7,000 -840 Descending Cincinnati TRACON
08:33AM 39.1667 -84.5333 360° North 213 245 6,000 -1,020 Descending Cincinnati TRACON
08:34AM 39.2167 -84.5333 360° North 212 244 5,100 -720 Descending Cincinnati TRACON
08:35AM 39.2636 -84.5808 322° Northwest 213 245 4,500 -480 Descending Indianapolis Center
08:36AM 39.2667 -84.6500 273° West 179 206 4,000 -600 Descending Cincinnati TRACON
08:37AM 39.2167 -84.6833 207° Southwest 169 194 3,400 -600 Descending Cincinnati TRACON